createdAt,value
2018-12-20T00:01:21.149Z,101088.71
2018-12-20T00:03:50.316Z,101094.39
2018-12-20T00:06:19.386Z,101089.49
2018-12-20T00:08:48.700Z,101090.57
2018-12-20T00:11:17.874Z,101093.68
2018-12-20T00:13:47.015Z,101097.56
2018-12-20T00:16:16.017Z,101099.81
2018-12-20T00:18:45.281Z,101096.31
2018-12-20T00:21:14.351Z,101099.59
2018-12-20T00:23:43.421Z,101101.59
2018-12-20T00:26:12.534Z,101102.06
2018-12-20T00:28:41.789Z,101106.42
2018-12-20T00:31:13.673Z,101115.13
2018-12-20T00:33:41.824Z,101115.37
2018-12-20T00:36:10.983Z,101122.38
2018-12-20T00:38:40.524Z,101123.91
2018-12-20T00:41:09.507Z,101123.23
2018-12-20T00:43:38.662Z,101125.70
2018-12-20T00:46:07.797Z,101130.84
2018-12-20T00:48:36.724Z,101129.38
2018-12-20T00:51:05.641Z,101131.83
2018-12-20T00:53:34.665Z,101125.08
2018-12-20T00:56:03.689Z,101129.30
2018-12-20T00:58:32.597Z,101128.27
2018-12-20T01:01:01.433Z,101125.48
2018-12-20T01:03:30.675Z,101130.05
2018-12-20T01:05:59.809Z,101124.38
2018-12-20T01:08:28.779Z,101128.66
2018-12-20T01:10:57.888Z,101125.41
2018-12-20T01:13:27.149Z,101128.91
2018-12-20T01:15:56.344Z,101131.83
2018-12-20T01:18:25.372Z,101129.91
2018-12-20T01:20:54.582Z,101128.13
2018-12-20T01:23:23.671Z,101135.41
2018-12-20T01:25:52.609Z,101130.83
2018-12-20T01:28:21.719Z,101122.98
2018-12-20T01:30:51.159Z,101125.23
2018-12-20T01:33:20.455Z,101122.20
2018-12-20T01:35:49.722Z,101121.44
2018-12-20T01:38:18.799Z,101118.23
2018-12-20T01:40:47.882Z,101115.77
2018-12-20T01:43:16.974Z,101117.55
2018-12-20T01:45:46.044Z,101112.48
2018-12-20T01:48:15.185Z,101110.17
2018-12-20T01:50:44.203Z,101105.81
2018-12-20T01:53:13.235Z,101101.92
2018-12-20T01:55:42.250Z,101099.99
2018-12-20T01:58:11.452Z,101098.81
2018-12-20T02:00:40.487Z,101104.95
2018-12-20T02:03:09.545Z,101098.03
2018-12-20T02:05:38.690Z,101097.24
2018-12-20T02:08:07.821Z,101100.52
2018-12-20T02:10:36.846Z,101101.20
2018-12-20T02:13:05.776Z,101099.34
2018-12-20T02:15:35.062Z,101096.89
2018-12-20T02:18:03.983Z,101094.46
2018-12-20T02:20:33.056Z,101094.85
2018-12-20T02:23:02.210Z,101095.92
2018-12-20T02:25:31.292Z,101099.53
2018-12-20T02:28:00.419Z,101095.10
2018-12-20T02:30:29.351Z,101095.92
2018-12-20T02:32:58.640Z,101100.38
2018-12-20T02:35:27.645Z,101106.73
2018-12-20T02:37:56.723Z,101105.34
2018-12-20T02:40:25.749Z,101101.27
2018-12-20T02:42:55.065Z,101105.21
2018-12-20T02:45:24.137Z,101110.09
2018-12-20T02:47:53.283Z,101099.93
2018-12-20T02:50:22.467Z,101104.53
2018-12-20T02:52:51.886Z,101099.39
2018-12-20T02:55:21.006Z,101095.69
2018-12-20T02:57:50.211Z,101097.39
2018-12-20T03:00:19.396Z,101102.02
2018-12-20T03:02:48.417Z,101102.89
2018-12-20T03:05:17.399Z,101099.48
2018-12-20T03:07:46.403Z,101106.12
2018-12-20T03:10:15.786Z,101107.27
2018-12-20T03:12:44.888Z,101110.95
2018-12-20T03:15:19.845Z,101111.87
2018-12-20T03:17:44.952Z,101110.44
2018-12-20T03:20:14.056Z,101103.62
2018-12-20T03:22:43.147Z,101108.91
2018-12-20T03:25:12.149Z,101107.50
2018-12-20T03:27:41.288Z,101113.54
2018-12-20T03:30:10.324Z,101115.11
2018-12-20T03:32:39.301Z,101120.78
2018-12-20T03:35:08.297Z,101119.22
2018-12-20T03:37:37.486Z,101123.03
2018-12-20T03:40:06.571Z,101112.61
2018-12-20T03:42:35.708Z,101125.13
2018-12-20T03:45:04.852Z,101124.48
2018-12-20T03:47:33.887Z,101129.84
2018-12-20T03:50:03.066Z,101139.41
2018-12-20T03:52:32.186Z,101140.11
2018-12-20T03:55:01.314Z,101144.29
2018-12-20T03:57:30.293Z,101143.50
2018-12-20T03:59:59.332Z,101143.23
2018-12-20T04:02:28.366Z,101151.37
2018-12-20T04:04:57.506Z,101149.13
2018-12-20T04:07:26.570Z,101153.27
2018-12-20T04:09:55.734Z,101148.51
2018-12-20T04:12:24.651Z,101151.94
2018-12-20T04:14:53.695Z,101157.51
2018-12-20T04:17:22.691Z,101163.51
2018-12-20T04:19:51.669Z,101162.97
2018-12-20T04:22:20.678Z,101157.83
2018-12-20T04:24:49.645Z,101155.19
2018-12-20T04:27:18.580Z,101155.97
2018-12-20T04:29:47.684Z,101156.75
2018-12-20T04:32:16.860Z,101158.76
2018-12-20T04:34:45.811Z,101152.33
2018-12-20T04:37:14.944Z,101154.11
2018-12-20T04:39:44.346Z,101152.41
2018-12-20T04:42:13.402Z,101143.84
2018-12-20T04:44:42.784Z,101145.87
2018-12-20T04:47:11.945Z,101141.12
2018-12-20T04:49:41.106Z,101140.50
2018-12-20T04:52:10.551Z,101134.04
2018-12-20T04:54:39.681Z,101134.02
2018-12-20T04:57:08.662Z,101136.47
2018-12-20T04:59:37.957Z,101134.55
2018-12-20T05:02:06.987Z,101136.47
2018-12-20T05:04:35.943Z,101130.27
2018-12-20T05:07:05.347Z,101130.83
2018-12-20T05:09:34.514Z,101120.94
2018-12-20T05:12:03.934Z,101124.28
2018-12-20T05:14:33.155Z,101122.50
2018-12-20T05:17:02.201Z,101118.37
2018-12-20T05:19:31.312Z,101115.80
2018-12-20T05:22:00.407Z,101119.91
2018-12-20T05:24:29.510Z,101117.86
2018-12-20T05:26:58.637Z,101122.08
2018-12-20T05:29:27.697Z,101124.41
2018-12-20T05:31:56.827Z,101119.60
2018-12-20T05:34:26.067Z,101122.00
2018-12-20T05:36:55.287Z,101121.47
2018-12-20T05:39:24.457Z,101116.98
2018-12-20T05:41:53.740Z,101113.58
2018-12-20T05:44:23.067Z,101123.65
2018-12-20T05:46:52.297Z,101127.02
2018-12-20T05:49:21.329Z,101132.91
2018-12-20T05:51:50.392Z,101130.75
2018-12-20T05:54:19.555Z,101125.87
2018-12-20T05:56:48.665Z,101124.66
2018-12-20T05:59:17.589Z,101127.13
2018-12-20T06:01:46.611Z,101112.94
2018-12-20T06:04:15.548Z,101110.44
2018-12-20T06:06:44.788Z,101102.77
2018-12-20T06:09:13.836Z,101101.84
2018-12-20T06:11:42.808Z,101107.13
2018-12-20T06:14:11.801Z,101102.23
2018-12-20T06:16:40.772Z,101112.15
2018-12-20T06:19:09.847Z,101111.30
2018-12-20T06:21:38.948Z,101108.59
2018-12-20T06:24:08.040Z,101104.55
2018-12-20T06:26:37.124Z,101110.90
2018-12-20T06:29:06.104Z,101107.72
2018-12-20T06:31:35.232Z,101110.30
2018-12-20T06:34:04.265Z,101112.41
2018-12-20T06:36:33.336Z,101117.83
2018-12-20T06:39:02.328Z,101109.62
2018-12-20T06:41:31.788Z,101111.95
2018-12-20T06:44:07.155Z,101110.70
2018-12-20T06:46:31.841Z,101115.13
2018-12-20T06:49:00.901Z,101109.84
2018-12-20T06:51:29.859Z,101117.70
2018-12-20T06:53:58.960Z,101114.05
2018-12-20T06:56:27.893Z,101114.52
2018-12-20T06:58:56.824Z,101114.44
2018-12-20T07:01:25.724Z,101119.87
2018-12-20T07:03:54.786Z,101122.50
2018-12-20T07:06:23.828Z,101119.18
2018-12-20T07:08:52.853Z,101122.12
2018-12-20T07:11:21.793Z,101125.55
2018-12-20T07:13:50.777Z,101126.31
2018-12-20T07:16:19.769Z,101122.40
2018-12-20T07:18:48.741Z,101119.86
2018-12-20T07:21:17.816Z,101129.02
2018-12-20T07:23:46.794Z,101125.52
2018-12-20T07:26:15.805Z,101127.80
2018-12-20T07:31:16.719Z,101124.41
2018-12-20T07:33:45.653Z,101120.33
2018-12-20T07:36:14.692Z,101122.48
2018-12-20T07:38:43.615Z,101128.42
2018-12-20T07:44:59.243Z,101135.47
2018-12-20T07:47:28.229Z,101133.61
2018-12-20T07:49:57.171Z,101142.09
2018-12-20T07:52:26.169Z,101149.83
2018-12-20T07:54:55.254Z,101142.02
2018-12-20T07:57:24.964Z,101145.64
2018-12-20T07:59:54.192Z,101144.36
2018-12-20T08:02:23.177Z,101145.36
2018-12-20T08:04:52.148Z,101143.14
2018-12-20T08:07:21.246Z,101143.89
2018-12-20T08:09:50.213Z,101144.50
2018-12-20T08:12:19.246Z,101140.78
2018-12-20T08:14:48.257Z,101150.02
2018-12-20T08:17:17.286Z,101147.11
2018-12-20T08:19:46.251Z,101150.42
2018-12-20T08:22:15.213Z,101145.98
2018-12-20T08:24:44.228Z,101147.17
2018-12-20T08:27:13.221Z,101143.16
2018-12-20T08:29:44.271Z,101142.28
2018-12-20T08:32:13.197Z,101144.24
2018-12-20T08:34:42.413Z,101140.48
2018-12-20T08:37:11.341Z,101143.91
2018-12-20T08:39:40.213Z,101145.14
2018-12-20T08:42:09.179Z,101144.08
2018-12-20T08:44:38.153Z,101141.03
2018-12-20T08:47:07.170Z,101138.05
2018-12-20T08:49:36.241Z,101134.84
2018-12-20T08:52:05.237Z,101136.17
2018-12-20T08:54:34.123Z,101135.02
2018-12-20T08:57:04.342Z,101136.17
2018-12-20T08:59:33.538Z,101129.88
2018-12-20T09:02:02.421Z,101123.93
2018-12-20T09:04:31.447Z,101126.28
2018-12-20T09:07:00.472Z,101121.31
2018-12-20T09:09:29.474Z,101125.44
2018-12-20T09:11:58.464Z,101121.91
2018-12-20T09:14:27.501Z,101123.29
2018-12-20T09:17:02.932Z,101119.70
2018-12-20T09:19:27.580Z,101125.95
2018-12-20T09:21:56.597Z,101122.11
2018-12-20T09:24:25.665Z,101113.16
2018-12-20T09:26:54.768Z,101113.42
2018-12-20T09:29:23.750Z,101110.80
2018-12-20T09:31:52.748Z,101108.12
2018-12-20T09:34:21.618Z,101101.31
2018-12-20T09:36:50.644Z,101098.10
2018-12-20T09:39:19.625Z,101100.08
2018-12-20T09:41:48.605Z,101092.97
2018-12-20T09:44:17.562Z,101090.96
2018-12-20T09:46:46.579Z,101083.09
2018-12-20T09:49:15.594Z,101084.20
2018-12-20T09:51:44.501Z,101085.66
2018-12-20T09:54:13.458Z,101076.63
2018-12-20T09:56:42.478Z,101077.32
2018-12-20T09:59:11.392Z,101072.88
2018-12-20T10:01:40.318Z,101071.76
2018-12-20T10:04:09.287Z,101056.62
2018-12-20T10:06:38.359Z,101060.00
2018-12-20T10:09:08.025Z,101054.52
2018-12-20T10:11:36.957Z,101058.50
2018-12-20T10:14:06.032Z,101056.79
2018-12-20T10:16:34.979Z,101054.19
2018-12-20T10:19:03.958Z,101049.34
2018-12-20T10:21:32.859Z,101047.38
2018-12-20T10:24:01.749Z,101045.04
2018-12-20T10:26:30.682Z,101040.50
2018-12-20T10:28:59.722Z,101036.16
2018-12-20T10:31:28.746Z,101038.03
2018-12-20T10:33:57.681Z,101038.13
2018-12-20T10:36:26.626Z,101035.59
2018-12-20T10:38:55.714Z,101028.94
2018-12-20T10:41:24.737Z,101024.98
2018-12-20T10:43:53.722Z,101025.15
2018-12-20T10:46:22.680Z,101019.38
2018-12-20T10:48:51.629Z,101016.64
2018-12-20T10:51:20.699Z,101016.26
2018-12-20T10:53:49.721Z,101002.71
2018-12-20T10:56:18.585Z,101006.59
2018-12-20T10:58:47.604Z,101001.83
2018-12-20T11:01:21.568Z,100998.44
2018-12-20T11:03:54.729Z,100990.38
2018-12-20T11:07:27.528Z,100992.75
2018-12-20T11:10:01.625Z,100998.88
2018-12-20T11:12:35.896Z,101003.19
2018-12-20T11:15:05.281Z,100997.50
2018-12-20T11:17:37.517Z,100995.28
2018-12-20T11:20:05.569Z,100996.90
2018-12-20T11:22:34.726Z,100997.44
2018-12-20T11:25:03.749Z,100996.67
2018-12-20T11:27:32.756Z,100994.09
2018-12-20T11:30:01.713Z,100997.23
2018-12-20T11:32:30.642Z,100992.93
2018-12-20T11:34:59.594Z,100996.30
2018-12-20T11:37:28.620Z,100982.66
2018-12-20T11:39:59.723Z,100982.45
2018-12-20T11:42:28.561Z,100983.77
2018-12-20T11:44:57.591Z,100980.96
2018-12-20T11:47:27.915Z,100982.12
2018-12-20T11:49:57.353Z,100977.80
2018-12-20T11:52:26.344Z,100981.56
2018-12-20T11:54:55.262Z,100986.09
2018-12-20T11:57:24.372Z,100986.64
2018-12-20T11:59:53.418Z,100995.11
2018-12-20T12:02:24.604Z,100986.58
2018-12-20T12:04:53.549Z,100996.30
2018-12-20T12:07:22.560Z,100992.11
2018-12-20T12:09:51.554Z,100992.80
2018-12-20T12:12:20.706Z,100999.95
2018-12-20T12:14:49.687Z,100991.70
2018-12-20T12:17:18.687Z,100989.98
2018-12-20T12:19:47.751Z,100997.67
2018-12-20T12:22:16.762Z,100996.36
2018-12-20T12:24:45.721Z,100987.34
2018-12-20T12:27:14.698Z,100990.22
2018-12-20T12:29:43.790Z,100989.91
2018-12-20T12:32:12.742Z,101001.34
2018-12-20T12:34:41.709Z,101002.50
2018-12-20T12:37:10.785Z,101011.05
2018-12-20T12:39:39.770Z,101017.51
2018-12-20T12:42:08.691Z,101021.11
2018-12-20T12:44:37.637Z,101026.40
2018-12-20T12:47:08.745Z,101026.27
2018-12-20T12:49:37.788Z,101029.05
2018-12-20T12:52:06.757Z,101037.18
2018-12-20T12:54:35.797Z,101033.02
2018-12-20T12:57:04.717Z,101032.30
2018-12-20T12:59:33.717Z,101042.27
2018-12-20T13:02:02.618Z,101047.63
2018-12-20T13:04:31.601Z,101057.27
2018-12-20T13:07:00.586Z,101067.59
2018-12-20T13:09:29.589Z,101066.88
2018-12-20T13:11:58.720Z,101070.70
2018-12-20T13:14:27.720Z,101071.23
2018-12-20T13:16:56.701Z,101060.89
2018-12-20T13:19:25.695Z,101073.64
2018-12-20T13:21:54.716Z,101072.85
2018-12-20T13:24:23.857Z,101069.11
2018-12-20T13:26:52.912Z,101075.63
2018-12-20T13:29:21.980Z,101080.85
2018-12-20T13:31:51.004Z,101073.19
2018-12-20T13:34:20.032Z,101072.85
2018-12-20T13:36:49.037Z,101073.31
2018-12-20T13:39:18.137Z,101075.65
2018-12-20T13:41:47.174Z,101074.50
2018-12-20T13:44:16.225Z,101070.22
2018-12-20T13:46:46.657Z,101069.84
2018-12-20T13:49:15.685Z,101075.13
2018-12-20T13:51:44.721Z,101073.98
2018-12-20T13:54:13.860Z,101073.66
2018-12-20T13:56:42.944Z,101077.54
2018-12-20T13:59:11.995Z,101082.43
2018-12-20T14:01:41.000Z,101077.29
2018-12-20T14:04:10.036Z,101074.42
2018-12-20T14:06:39.360Z,101074.42
2018-12-20T14:09:10.004Z,101081.50
2018-12-20T14:11:39.180Z,101070.40
2018-12-20T14:14:08.188Z,101073.11
2018-12-20T14:16:37.333Z,101065.41
2018-12-20T14:19:06.354Z,101063.48
2018-12-20T14:21:35.296Z,101072.48
2018-12-20T14:24:04.412Z,101067.27
2018-12-20T14:26:33.350Z,101073.39
2018-12-20T14:29:02.404Z,101074.11
2018-12-20T14:31:31.394Z,101078.82
2018-12-20T14:34:00.385Z,101070.77
2018-12-20T14:36:29.425Z,101073.01
2018-12-20T14:38:58.486Z,101075.32
2018-12-20T14:41:27.433Z,101072.53
2018-12-20T14:43:56.484Z,101071.34
2018-12-20T14:46:25.424Z,101075.70
2018-12-20T14:49:24.829Z,101074.16
2018-12-20T14:51:53.836Z,101082.22
2018-12-20T14:54:23.008Z,101083.47
2018-12-20T14:56:51.938Z,101083.60
2018-12-20T14:59:20.932Z,101092.80
2018-12-20T15:01:50.100Z,101091.09
2018-12-20T15:04:19.010Z,101084.80
2018-12-20T15:06:48.038Z,101087.95
2018-12-20T15:09:17.103Z,101086.91
2018-12-20T15:11:46.088Z,101083.30
2018-12-20T15:14:15.099Z,101090.95
2018-12-20T15:16:44.197Z,101087.20
2018-12-20T15:19:13.144Z,101089.54
2018-12-20T15:21:42.140Z,101092.80
2018-12-20T15:24:11.124Z,101084.40
2018-12-20T15:26:40.700Z,101089.02
2018-12-20T15:29:09.834Z,101087.83
2018-12-20T15:31:38.821Z,101088.88
2018-12-20T15:34:07.805Z,101084.27
2018-12-20T15:36:36.696Z,101081.06
2018-12-20T15:39:07.691Z,101083.27
2018-12-20T15:41:36.692Z,101077.31
2018-12-20T15:44:05.701Z,101079.95
2018-12-20T15:46:34.636Z,101081.27
2018-12-20T15:49:03.736Z,101089.02
2018-12-20T15:51:33.550Z,101088.08
2018-12-20T15:54:02.514Z,101099.09
2018-12-20T15:56:31.340Z,101097.45
2018-12-20T15:59:00.322Z,101102.07
2018-12-20T16:01:29.302Z,101098.81
2018-12-20T16:03:58.213Z,101092.68
2018-12-20T16:06:27.335Z,101099.44
2018-12-20T16:08:56.274Z,101097.45
2018-12-20T16:11:25.338Z,101102.56
2018-12-20T16:13:54.436Z,101097.45
2018-12-20T16:16:23.523Z,101103.35
2018-12-20T16:18:52.576Z,101094.64
2018-12-20T16:21:21.629Z,101103.48
2018-12-20T16:23:50.614Z,101100.97
2018-12-20T16:26:19.611Z,101098.03
2018-12-20T16:28:48.640Z,101098.25
2018-12-20T16:31:17.706Z,101099.74
2018-12-20T16:33:46.653Z,101095.62
2018-12-20T16:36:15.727Z,101088.42
2018-12-20T16:38:44.811Z,101094.55
2018-12-20T16:41:13.758Z,101093.63
2018-12-20T16:43:42.761Z,101100.14
2018-12-20T16:46:11.811Z,101092.36
2018-12-20T16:48:40.750Z,101090.03
2018-12-20T16:51:09.699Z,101088.05
2018-12-20T16:53:38.638Z,101089.23
2018-12-20T16:56:07.726Z,101085.81
2018-12-20T16:58:36.802Z,101083.50
2018-12-20T17:01:05.809Z,101081.08
2018-12-20T17:03:35.077Z,101086.99
2018-12-20T17:06:04.108Z,101091.73
2018-12-20T17:08:33.232Z,101083.67
2018-12-20T17:11:02.218Z,101081.11
2018-12-20T17:13:31.208Z,101088.63
2018-12-20T17:16:00.157Z,101084.67
2018-12-20T17:18:29.093Z,101090.34
2018-12-20T17:20:58.070Z,101095.94
2018-12-20T17:23:35.423Z,101090.11
2018-12-20T17:25:58.384Z,101099.97
2018-12-20T17:28:27.434Z,101103.42
2018-12-20T17:30:56.541Z,101100.20
2018-12-20T17:33:25.537Z,101105.14
2018-12-20T17:35:54.556Z,101113.91
2018-12-20T17:38:23.562Z,101102.50
2018-12-20T17:40:52.752Z,101109.59
2018-12-20T17:43:21.728Z,101115.91
2018-12-20T17:45:50.777Z,101108.23
2018-12-20T17:48:19.704Z,101114.16
2018-12-20T17:50:48.741Z,101113.20
2018-12-20T17:53:17.721Z,101117.75
2018-12-20T17:55:46.651Z,101123.03
2018-12-20T17:58:15.648Z,101119.53
2018-12-20T18:00:44.860Z,101117.42
2018-12-20T18:03:13.940Z,101124.48
2018-12-20T18:05:43.018Z,101121.38
2018-12-20T18:08:12.049Z,101117.89
2018-12-20T18:10:41.586Z,101124.16
2018-12-20T18:13:10.679Z,101130.29
2018-12-20T18:15:39.677Z,101130.48
2018-12-20T18:18:08.688Z,101130.18
2018-12-20T18:20:37.779Z,101118.30
2018-12-20T18:23:06.796Z,101118.44
2018-12-20T18:25:35.738Z,101116.89
2018-12-20T18:28:04.696Z,101126.92
2018-12-20T18:30:33.692Z,101125.34
2018-12-20T18:33:02.733Z,101130.69
2018-12-20T18:35:31.678Z,101123.47
2018-12-20T18:38:00.754Z,101127.36
2018-12-20T18:40:29.929Z,101129.69
2018-12-20T18:42:58.923Z,101132.66
2018-12-20T18:45:27.862Z,101136.29
2018-12-20T18:47:56.944Z,101130.09
2018-12-20T18:50:25.937Z,101122.00
2018-12-20T18:52:54.873Z,101122.30
2018-12-20T18:55:23.979Z,101121.38
2018-12-20T18:57:52.961Z,101125.08
2018-12-20T19:00:21.969Z,101125.52
2018-12-20T19:02:51.064Z,101133.78
2018-12-20T19:05:20.070Z,101124.41
2018-12-20T19:07:49.001Z,101132.47
2018-12-20T19:10:18.061Z,101135.89
2018-12-20T19:12:47.080Z,101139.72
2018-12-20T19:15:16.051Z,101144.07
2018-12-20T19:17:45.053Z,101143.05
2018-12-20T19:20:16.376Z,101146.88
2018-12-20T19:22:45.063Z,101146.34
2018-12-20T19:25:14.020Z,101150.45
2018-12-20T19:27:42.940Z,101147.03
2018-12-20T19:30:12.306Z,101142.05
2018-12-20T19:32:41.341Z,101134.92
2018-12-20T19:35:10.550Z,101137.70
2018-12-20T19:37:39.573Z,101146.94
2018-12-20T19:40:10.922Z,101153.53
2018-12-20T19:42:39.906Z,101148.13
2018-12-20T19:45:08.892Z,101153.89
2018-12-20T19:47:38.246Z,101149.77
2018-12-20T19:50:09.205Z,101148.19
2018-12-20T19:52:38.191Z,101149.11
2018-12-20T19:55:07.653Z,101143.11
2018-12-20T19:57:36.686Z,101138.99
2018-12-20T20:00:10.104Z,101132.99
2018-12-20T20:02:39.149Z,101126.95
2018-12-20T20:05:08.189Z,101127.39
2018-12-20T20:07:37.257Z,101131.74
2018-12-20T20:10:08.353Z,101144.77
2018-12-20T20:12:37.356Z,101151.09
2018-12-20T20:15:16.041Z,101147.77
2018-12-20T20:17:39.605Z,101153.67
2018-12-20T20:20:13.715Z,101154.76
2018-12-20T20:22:39.657Z,101145.92
2018-12-20T20:25:09.301Z,101134.97
2018-12-20T20:27:38.337Z,101126.86
2018-12-20T20:30:10.653Z,101136.62
2018-12-20T20:32:39.640Z,101142.03
2018-12-20T20:35:08.829Z,101141.64
2018-12-20T20:37:37.825Z,101135.08
2018-12-20T20:40:09.121Z,101142.29
2018-12-20T20:42:38.085Z,101138.00
2018-12-20T20:45:07.698Z,101140.38
2018-12-20T20:47:36.644Z,101140.84
2018-12-20T20:50:07.089Z,101149.47
2018-12-20T20:52:36.180Z,101148.95
2018-12-20T20:55:05.974Z,101148.88
2018-12-20T20:57:35.001Z,101146.81
2018-12-20T21:00:04.250Z,101148.63
2018-12-20T21:02:33.097Z,101157.00
2018-12-20T21:05:02.054Z,101171.31
2018-12-20T21:07:31.037Z,101171.02
2018-12-20T21:09:59.919Z,101166.80
2018-12-20T21:12:28.965Z,101154.70
2018-12-20T21:14:57.946Z,101139.00
2018-12-20T21:17:26.941Z,101137.42
2018-12-20T21:19:55.983Z,101142.33
2018-12-20T21:22:24.940Z,101145.20
2018-12-20T21:24:53.916Z,101135.57
2018-12-20T21:27:22.952Z,101136.36
2018-12-20T21:29:51.930Z,101134.58
2018-12-20T21:32:20.909Z,101135.97
2018-12-20T21:34:49.885Z,101120.23
2018-12-20T21:37:18.829Z,101121.66
2018-12-20T21:39:47.830Z,101123.44
2018-12-20T21:42:16.917Z,101125.61
2018-12-20T21:44:46.028Z,101130.66
2018-12-20T21:47:14.915Z,101129.20
2018-12-20T21:49:43.956Z,101131.48
2018-12-20T21:52:13.309Z,101133.42
2018-12-20T21:54:42.288Z,101136.20
2018-12-20T21:57:11.299Z,101135.10
2018-12-20T21:59:40.445Z,101134.58
2018-12-20T22:02:09.469Z,101125.37
2018-12-20T22:04:38.444Z,101120.56
2018-12-20T22:07:07.517Z,101123.66
2018-12-20T22:09:36.397Z,101132.23
2018-12-20T22:12:05.429Z,101133.09
2018-12-20T22:14:34.455Z,101129.43
2018-12-20T22:17:03.455Z,101127.42
2018-12-20T22:19:32.505Z,101112.74
2018-12-20T22:22:01.478Z,101116.41
2018-12-20T22:24:30.413Z,101110.64
2018-12-20T22:26:59.244Z,101116.67
2018-12-20T22:29:28.214Z,101124.32
2018-12-20T22:31:57.235Z,101120.23
2018-12-20T22:34:26.214Z,101108.83
2018-12-20T22:36:55.100Z,101112.48
2018-12-20T22:39:23.985Z,101108.07
2018-12-20T22:41:53.022Z,101116.54
2018-12-20T22:44:22.009Z,101105.00
2018-12-20T22:46:51.088Z,101102.33
2018-12-20T22:49:20.024Z,101105.44
2018-12-20T22:51:49.001Z,101104.78
2018-12-20T22:54:17.971Z,101101.15
2018-12-20T22:56:46.900Z,101094.95
2018-12-20T22:59:15.829Z,101105.89
2018-12-20T23:01:44.879Z,101104.27
2018-12-20T23:04:13.797Z,101098.37
2018-12-20T23:06:42.828Z,101093.17
2018-12-20T23:09:11.717Z,101092.05
2018-12-20T23:11:40.669Z,101093.14
2018-12-20T23:14:09.625Z,101081.89
2018-12-20T23:16:38.556Z,101084.83
2018-12-20T23:19:07.501Z,101086.61
2018-12-20T23:21:36.489Z,101091.75
2018-12-20T23:24:05.455Z,101100.23
2018-12-20T23:26:34.452Z,101097.45
2018-12-20T23:29:03.609Z,101096.73
2018-12-20T23:31:32.669Z,101078.77
2018-12-20T23:34:01.693Z,101090.73
2018-12-20T23:36:30.717Z,101079.52
2018-12-20T23:38:59.729Z,101077.97
2018-12-20T23:41:28.608Z,101074.17
2018-12-20T23:43:57.623Z,101078.81
2018-12-20T23:46:26.595Z,101084.56
2018-12-20T23:48:55.535Z,101087.52
2018-12-20T23:51:24.505Z,101081.72
2018-12-20T23:53:53.498Z,101085.02
2018-12-20T23:56:22.369Z,101074.64
2018-12-20T23:58:51.401Z,101081.63
